EGPO - Stornoway, United Kingdom
Distance from station: E 3km
Updated: Sun, 24-Jan-2021 8:50pm GMT
Light rain, Overcast
Light rain, Overcast
 Wind from NW
Wind: NW 12 mph , 19 km/h
Temperature: 2°C
Wind Chill: -2°C
Dew Point: 1°C
Humidity: 93%
Barometer: 997 hPa
Summary: Light Rain
Clouds: Overcast
Visibility: 3 miles , 4 km
Cloud details: Few Clouds 91 m
Mostly Cloudy 305 m
Overcast 488 m
2021/01/24 20:50 EGPO 242050Z AUTO 32010KT 4200 -RA FEW003/// BKN010/// OVC016/// 02/01 Q0997 RERA
EGPL - Benbecula Island, United Kingdom
Distance from station: SW 102km
Updated: Sun, 24-Jan-2021 8:50pm GMT
Few Clouds
Few Clouds
 Wind from WNW
Wind: WNW 18 mph , 30 km/h
Temperature: 5°C
Wind Chill: 0°C
Dew Point: 1°C
Humidity: 76%
Barometer: 999 hPa
Clouds: Few Clouds
Visibility: 6 miles , 10 km
Cloud details: Few Clouds 1036 m
2021/01/24 20:50 EGPL 242050Z AUTO 30016KT 9999 FEW034/// 05/01 Q0999
EGQA - Tain Range (saws, United Kingdom
Distance from station: ESE 149km
Updated: Thu, 21-Jan-2021 5:50pm GMT
NOT Current
Partly Cloudy
Partly Cloudy
 Wind from W
Wind: W 17 mph , 28 km/h, Gust: 29 mph , 46 km/h
Clouds: Partly Cloudy
Visibility: 6 miles , 10 km
Cloud details: Few Clouds 274 m
Partly Cloudy 549 m
2021/01/21 17:50 EGQA 211750Z 27015G25KT 9999 FEW009 SCT018 02/// Q0972 RMK WHT
 
EGPE - Inverness/Dalcro, United Kingdom
Distance from station: ESE 158km
Updated: Sun, 24-Jan-2021 8:50pm GMT
Mostly Cloudy
Mostly Cloudy
 Wind from SW
Wind: SW 17 mph , 28 km/h
Temperature: 1°C
Wind Chill: -5°C
Dew Point: 0°C
Humidity: 93%
Barometer: 996 hPa
Clouds: Mostly Cloudy
Visibility: 6 miles , 10 km
Cloud details: Few Clouds 183 m
Mostly Cloudy 549 m
Mostly Cloudy 1250 m
2021/01/24 20:50 EGPE 242050Z AUTO 22015KT 9999 FEW006/// BKN018/// BKN041/// 01/M00 Q0996
EGQS - Lossiemouth Raf, United Kingdom
Distance from station: ESE 188km
Updated: Sun, 24-Jan-2021 8:50pm GMT
Mostly Cloudy
Mostly Cloudy
 Wind from WSW
Wind: WSW 18 mph , 30 km/h
Temperature: 2°C
Wind Chill: -3°C
Dew Point: 0°C
Humidity: 87%
Barometer: 995 hPa
Clouds: Mostly Cloudy
Visibility: 6 miles , 10 km
Cloud details: Few Clouds 305 m
Partly Cloudy 610 m
Mostly Cloudy 1067 m
2021/01/24 20:50 EGQS 242050Z 25016KT 9999 FEW010 SCT020 BKN035 02/00 Q0995 RESHRA RESHSN RMK WHT
EGPU - Tiree Island, United Kingdom
Distance from station: S 193km
Updated: Sun, 24-Jan-2021 8:50pm GMT
Clear
Clear
 Wind from WNW
Wind: WNW 10 mph , 17 km/h
Temperature: 3°C
Wind Chill: -1°C
Dew Point: 1°C
Humidity: 87%
Barometer: 1000 hPa
Clouds: Clear
Visibility: 6 miles , 10 km
2021/01/24 20:50 EGPU 242050Z AUTO 29009KT 9999 NCD 03/01 Q1000 RERA
 
EGPC - Wick, United Kingdom
Distance from station: E 195km
Updated: Sun, 24-Jan-2021 8:50pm GMT
Partly Cloudy
Partly Cloudy
 Wind from W
Wind: W 15 mph , 24 km/h
Temperature: 2°C
Wind Chill: -3°C
Dew Point: 1°C
Humidity: 93%
Barometer: 992 hPa
Clouds: Partly Cloudy
Visibility: 6 miles , 10 km
Cloud details: Few Clouds 671 m
Partly Cloudy 1067 m
2021/01/24 20:50 EGPC 242050Z AUTO 26013KT 9999 FEW022/// SCT035/// 02/01 Q0992
EGEO - Oban Airport, United Kingdom
Distance from station: SSE 203km
Updated: Thu, 21-Jan-2021 1:50pm GMT
NOT Current
Mostly Cloudy
Mostly Cloudy
 Wind from WNW
Wind: WNW 20 mph , 31 km/h
Temperature: 5°C
Wind Chill: 0°C
Dew Point: 1°C
Humidity: 76%
Barometer: 975 hPa
Clouds: Mostly Cloudy
Visibility: 6 miles , 10 km
Cloud details: Mostly Cloudy 1036 m
2021/01/21 13:50 EGEO 211350Z 30017KT 9999 BKN034 05/01 Q0975
EGPA - Kirkwall Airport, United Kingdom
Distance from station: ENE 218km
Updated: Sun, 24-Jan-2021 8:50pm GMT
Partly Cloudy
Partly Cloudy
 Wind from W
Wind: W 5 mph , 7 km/h
Temperature: 2°C
Wind Chill: 0°C
Dew Point: 1°C
Humidity: 93%
Barometer: 992 hPa
Clouds: Partly Cloudy
Visibility: 6 miles , 10 km
Cloud details: Partly Cloudy 1097 m
2021/01/24 20:50 EGPA 242050Z AUTO 28004KT 9999 SCT036/// 02/01 Q0992
 
EGPD - Aberdeen/Dyce, United Kingdom
Distance from station: ESE 271km
Updated: Sun, 24-Jan-2021 8:50pm GMT
Few Clouds
Few Clouds
 Wind from WSW
Wind: WSW 10 mph , 17 km/h
Temperature: 1°C
Wind Chill: -3°C
Dew Point: -4°C
Humidity: 70%
Barometer: 996 hPa
Clouds: Few Clouds
Visibility: 6 miles , 10 km
Cloud details: Few Clouds 975 m
2021/01/24 20:50 EGPD 242050Z AUTO 25009KT 9999 FEW032 01/M04 Q0996 TEMPO RA
EGPI - Islay/Port Ellen, United Kingdom
Distance from station: S 281km
Updated: Sun, 24-Jan-2021 9:17pm GMT
unable to load EGPI data RC=
unable to load EGPI data RC=
 
EGPN - Dundee/Riverside, United Kingdom
Distance from station: SE 281km
Updated: Sun, 24-Jan-2021 3:50pm GMT
NOT Current
Clear
Clear
 Wind from W
Wind: W 6 mph , 9 km/h
Temperature: 2°C
Wind Chill: -1°C
Dew Point: -2°C
Humidity: 75%
Barometer: 997 hPa
Summary: Clear
Visibility: greater than 7 miles , 10 km
2021/01/24 15:50 EGPN 241550Z 28005KT CAVOK 02/M02 Q0997
 
EGPF - Glasgow Airport, United Kingdom
Distance from station: SSE 286km
Updated: Sun, 24-Jan-2021 8:50pm GMT
Clear
Clear
 Wind from varies
Wind: varies 2 mph , 4 km/h
Temperature: -5°C
Dew Point: -5°C
Humidity: 100%
Barometer: 1000 hPa
Clouds: Clear
Visibility: 6 miles , 10 km
2021/01/24 20:50 EGPF 242050Z AUTO VRB02KT 9999 NCD M05/M05 Q1000
EGQL - Leuchars Raf, United Kingdom
Distance from station: SE 293km
Updated: Sun, 24-Jan-2021 8:50pm GMT
Clear
Clear
 Wind from WSW
Wind: WSW 12 mph , 19 km/h
Temperature: -2°C
Wind Chill: -8°C
Dew Point: -3°C
Humidity: 93%
Barometer: 998 hPa
Summary: Clear
Visibility: greater than 7 miles , 10 km
2021/01/24 20:50 EGQL 242050Z 25010KT CAVOK M02/M03 Q0998 BLU
EGPH - Edinburgh Airpor, United Kingdom
Distance from station: SE 311km
Updated: Sun, 24-Jan-2021 8:50pm GMT
Clear
Clear
 Wind from WSW
Wind: WSW 10 mph , 17 km/h
Temperature: -1°C
Wind Chill: -6°C
Dew Point: -2°C
Humidity: 93%
Barometer: 999 hPa
Summary: Clear
Visibility: greater than 7 miles , 10 km
2021/01/24 20:50 EGPH 242050Z 25009KT CAVOK M01/M02 Q0999
 
EGEC - Campbeltown, United Kingdom
Distance from station: S 312km
Updated: Sun, 24-Jan-2021 8:50pm GMT
Partly Cloudy
Partly Cloudy
 Wind from NW
Wind: NW 10 mph , 17 km/h
Temperature: 3°C
Wind Chill: -1°C
Dew Point: 0°C
Humidity: 81%
Barometer: 1001 hPa
Clouds: Partly Cloudy
Visibility: 6 miles , 10 km
Cloud details: Partly Cloudy 549 m
2021/01/24 20:50 EGEC 242050Z 31009KT 9999 SCT018 03/00 Q1001
EGPK - Prestwick(Civ/Na, United Kingdom
Distance from station: SSE 321km
Updated: Sun, 24-Jan-2021 8:50pm GMT
Few Clouds
Few Clouds
 Wind from W
Wind: W 13 mph , 20 km/h
Temperature: 3°C
Wind Chill: -2°C
Dew Point: 0°C
Humidity: 81%
Barometer: 1001 hPa
Clouds: Few Clouds
Visibility: 6 miles , 10 km
Cloud details: Few Clouds 1341 m
2021/01/24 20:50 EGPK 242050Z 27011KT 9999 FEW044 03/00 Q1001
EGPB - Sumburgh (cape), United Kingdom
Distance from station: NE 343km
Updated: Sun, 24-Jan-2021 8:50pm GMT
Few Clouds
Few Clouds
 Wind from SE
Wind: SE 5 mph , 7 km/h
Temperature: 1°C
Wind Chill: -2°C
Dew Point: 0°C
Humidity: 93%
Barometer: 993 hPa
Clouds: Few Clouds
Visibility: 6 miles , 10 km
Cloud details: Few Clouds 335 m
2021/01/24 20:50 EGPB 242050Z AUTO 14004KT 9999 FEW011/// 01/00 Q0993

Metar display script from Saratoga-Weather.org